sensor_id;sensor_type;location;lat;lon;timestamp;P1;durP1;ratioP1;P2;durP2;ratioP2
81619;SDS011;71028;53.410;6.710;2023-08-12T00:00:22;13.85;;;9.50;;
81619;SDS011;71028;53.410;6.710;2023-08-12T00:02:48;17.38;;;10.23;;
81619;SDS011;71028;53.410;6.710;2023-08-12T00:05:14;18.88;;;8.85;;
81619;SDS011;71028;53.410;6.710;2023-08-12T00:07:40;18.05;;;9.93;;
81619;SDS011;71028;53.410;6.710;2023-08-12T00:10:07;14.77;;;9.38;;
81619;SDS011;71028;53.410;6.710;2023-08-12T00:12:34;16.10;;;9.43;;
81619;SDS011;71028;53.410;6.710;2023-08-12T00:15:00;23.42;;;10.18;;
81619;SDS011;71028;53.410;6.710;2023-08-12T00:17:26;14.93;;;8.02;;
81619;SDS011;71028;53.410;6.710;2023-08-12T00:19:52;13.57;;;9.15;;
81619;SDS011;71028;53.410;6.710;2023-08-12T00:22:18;15.40;;;9.57;;
81619;SDS011;71028;53.410;6.710;2023-08-12T00:24:44;16.58;;;9.70;;
81619;SDS011;71028;53.410;6.710;2023-08-12T00:27:10;12.73;;;8.77;;
81619;SDS011;71028;53.410;6.710;2023-08-12T00:29:37;14.10;;;8.45;;
81619;SDS011;71028;53.410;6.710;2023-08-12T00:32:03;11.73;;;8.10;;
81619;SDS011;71028;53.410;6.710;2023-08-12T00:34:29;12.43;;;8.48;;
81619;SDS011;71028;53.410;6.710;2023-08-12T00:36:55;15.00;;;8.82;;
81619;SDS011;71028;53.410;6.710;2023-08-12T00:39:21;12.80;;;8.07;;
81619;SDS011;71028;53.410;6.710;2023-08-12T00:41:47;12.25;;;9.20;;
81619;SDS011;71028;53.410;6.710;2023-08-12T00:44:13;15.68;;;9.05;;
81619;SDS011;71028;53.410;6.710;2023-08-12T00:46:40;11.70;;;8.25;;
81619;SDS011;71028;53.410;6.710;2023-08-12T00:49:06;14.02;;;8.23;;
81619;SDS011;71028;53.410;6.710;2023-08-12T00:51:34;14.27;;;7.80;;
81619;SDS011;71028;53.410;6.710;2023-08-12T00:54:02;13.65;;;8.18;;
81619;SDS011;71028;53.410;6.710;2023-08-12T00:56:30;14.32;;;8.40;;
81619;SDS011;71028;53.410;6.710;2023-08-12T00:58:56;13.52;;;8.52;;
81619;SDS011;71028;53.410;6.710;2023-08-12T01:01:23;13.55;;;6.93;;
81619;SDS011;71028;53.410;6.710;2023-08-12T01:03:49;10.65;;;7.28;;
81619;SDS011;71028;53.410;6.710;2023-08-12T01:06:15;9.93;;;6.88;;
81619;SDS011;71028;53.410;6.710;2023-08-12T01:08:41;11.27;;;6.95;;
81619;SDS011;71028;53.410;6.710;2023-08-12T01:11:12;12.82;;;7.20;;
81619;SDS011;71028;53.410;6.710;2023-08-12T01:16:15;10.45;;;6.18;;
81619;SDS011;71028;53.410;6.710;2023-08-12T01:18:42;14.65;;;6.90;;
81619;SDS011;71028;53.410;6.710;2023-08-12T01:21:09;13.30;;;6.38;;
81619;SDS011;71028;53.410;6.710;2023-08-12T01:23:37;9.30;;;5.82;;
81619;SDS011;71028;53.410;6.710;2023-08-12T01:26:04;8.52;;;5.80;;
81619;SDS011;71028;53.410;6.710;2023-08-12T01:28:30;11.60;;;6.13;;
81619;SDS011;71028;53.410;6.710;2023-08-12T01:31:18;11.57;;;5.85;;
81619;SDS011;71028;53.410;6.710;2023-08-12T01:33:43;10.48;;;6.05;;
81619;SDS011;71028;53.410;6.710;2023-08-12T01:36:16;10.98;;;6.00;;
81619;SDS011;71028;53.410;6.710;2023-08-12T01:38:43;10.77;;;6.20;;
81619;SDS011;71028;53.410;6.710;2023-08-12T01:41:11;10.82;;;5.88;;
81619;SDS011;71028;53.410;6.710;2023-08-12T01:43:38;9.23;;;5.57;;
81619;SDS011;71028;53.410;6.710;2023-08-12T01:46:05;7.95;;;5.10;;
81619;SDS011;71028;53.410;6.710;2023-08-12T01:48:31;9.70;;;5.68;;
81619;SDS011;71028;53.410;6.710;2023-08-12T01:50:57;10.85;;;6.45;;
81619;SDS011;71028;53.410;6.710;2023-08-12T01:53:23;9.15;;;4.93;;
81619;SDS011;71028;53.410;6.710;2023-08-12T01:55:50;9.02;;;5.47;;
81619;SDS011;71028;53.410;6.710;2023-08-12T01:58:16;11.80;;;5.75;;
81619;SDS011;71028;53.410;6.710;2023-08-12T02:00:42;12.00;;;5.43;;
81619;SDS011;71028;53.410;6.710;2023-08-12T02:03:08;8.75;;;5.43;;
81619;SDS011;71028;53.410;6.710;2023-08-12T02:05:34;8.38;;;4.90;;
81619;SDS011;71028;53.410;6.710;2023-08-12T02:08:02;8.68;;;5.55;;
81619;SDS011;71028;53.410;6.710;2023-08-12T02:10:28;7.43;;;4.90;;
81619;SDS011;71028;53.410;6.710;2023-08-12T02:12:54;8.32;;;4.97;;
81619;SDS011;71028;53.410;6.710;2023-08-12T02:15:20;7.78;;;4.35;;
81619;SDS011;71028;53.410;6.710;2023-08-12T02:17:46;7.40;;;4.60;;
81619;SDS011;71028;53.410;6.710;2023-08-12T02:20:12;8.45;;;4.72;;
81619;SDS011;71028;53.410;6.710;2023-08-12T02:22:38;7.38;;;4.57;;
81619;SDS011;71028;53.410;6.710;2023-08-12T02:25:04;7.13;;;4.40;;
81619;SDS011;71028;53.410;6.710;2023-08-12T02:27:30;7.40;;;4.18;;
81619;SDS011;71028;53.410;6.710;2023-08-12T02:29:56;7.40;;;4.57;;
81619;SDS011;71028;53.410;6.710;2023-08-12T02:32:22;6.53;;;3.92;;
81619;SDS011;71028;53.410;6.710;2023-08-12T02:34:48;6.03;;;4.03;;
81619;SDS011;71028;53.410;6.710;2023-08-12T02:37:14;9.13;;;4.03;;
81619;SDS011;71028;53.410;6.710;2023-08-12T02:39:40;5.28;;;3.70;;
81619;SDS011;71028;53.410;6.710;2023-08-12T02:42:06;5.93;;;3.90;;
81619;SDS011;71028;53.410;6.710;2023-08-12T02:44:32;6.28;;;4.13;;
81619;SDS011;71028;53.410;6.710;2023-08-12T02:46:58;7.20;;;3.38;;
81619;SDS011;71028;53.410;6.710;2023-08-12T02:49:24;7.10;;;3.58;;
81619;SDS011;71028;53.410;6.710;2023-08-12T02:51:50;6.78;;;4.28;;
81619;SDS011;71028;53.410;6.710;2023-08-12T02:54:16;7.00;;;3.78;;
81619;SDS011;71028;53.410;6.710;2023-08-12T02:56:43;7.40;;;3.60;;
81619;SDS011;71028;53.410;6.710;2023-08-12T02:59:09;6.65;;;3.53;;
81619;SDS011;71028;53.410;6.710;2023-08-12T03:01:35;10.40;;;4.20;;
81619;SDS011;71028;53.410;6.710;2023-08-12T03:04:01;5.35;;;3.25;;
81619;SDS011;71028;53.410;6.710;2023-08-12T03:06:27;7.55;;;4.55;;
81619;SDS011;71028;53.410;6.710;2023-08-12T03:08:53;8.55;;;5.05;;
81619;SDS011;71028;53.410;6.710;2023-08-12T03:11:20;7.82;;;4.40;;
81619;SDS011;71028;53.410;6.710;2023-08-12T03:13:46;7.55;;;3.60;;
81619;SDS011;71028;53.410;6.710;2023-08-12T03:16:12;6.55;;;4.30;;
81619;SDS011;71028;53.410;6.710;2023-08-12T03:18:41;8.90;;;4.45;;
81619;SDS011;71028;53.410;6.710;2023-08-12T03:21:08;6.97;;;3.90;;
81619;SDS011;71028;53.410;6.710;2023-08-12T03:23:35;7.38;;;4.28;;
81619;SDS011;71028;53.410;6.710;2023-08-12T03:26:01;7.38;;;4.13;;
81619;SDS011;71028;53.410;6.710;2023-08-12T03:28:27;8.05;;;3.72;;
81619;SDS011;71028;53.410;6.710;2023-08-12T03:30:53;8.95;;;4.03;;
81619;SDS011;71028;53.410;6.710;2023-08-12T03:33:19;7.07;;;3.78;;
81619;SDS011;71028;53.410;6.710;2023-08-12T03:35:45;9.52;;;4.07;;
81619;SDS011;71028;53.410;6.710;2023-08-12T03:38:12;7.38;;;4.43;;
81619;SDS011;71028;53.410;6.710;2023-08-12T03:40:38;9.57;;;5.18;;
81619;SDS011;71028;53.410;6.710;2023-08-12T03:43:04;7.03;;;3.95;;
81619;SDS011;71028;53.410;6.710;2023-08-12T03:45:30;6.47;;;3.63;;
81619;SDS011;71028;53.410;6.710;2023-08-12T03:47:56;6.15;;;3.33;;
81619;SDS011;71028;53.410;6.710;2023-08-12T03:50:22;8.85;;;4.30;;
81619;SDS011;71028;53.410;6.710;2023-08-12T03:52:48;8.05;;;4.30;;
81619;SDS011;71028;53.410;6.710;2023-08-12T03:55:14;7.38;;;3.80;;
81619;SDS011;71028;53.410;6.710;2023-08-12T03:57:40;6.20;;;3.90;;
81619;SDS011;71028;53.410;6.710;2023-08-12T04:00:06;7.45;;;4.10;;
81619;SDS011;71028;53.410;6.710;2023-08-12T04:02:33;5.80;;;4.18;;
81619;SDS011;71028;53.410;6.710;2023-08-12T04:04:59;6.70;;;3.83;;
81619;SDS011;71028;53.410;6.710;2023-08-12T04:07:25;6.13;;;3.53;;
81619;SDS011;71028;53.410;6.710;2023-08-12T04:09:52;7.30;;;4.32;;
81619;SDS011;71028;53.410;6.710;2023-08-12T04:12:18;8.88;;;4.10;;
81619;SDS011;71028;53.410;6.710;2023-08-12T04:14:44;7.85;;;4.65;;
81619;SDS011;71028;53.410;6.710;2023-08-12T04:17:10;7.93;;;4.50;;
81619;SDS011;71028;53.410;6.710;2023-08-12T04:19:36;7.90;;;4.60;;
81619;SDS011;71028;53.410;6.710;2023-08-12T04:22:02;7.97;;;4.13;;
81619;SDS011;71028;53.410;6.710;2023-08-12T04:24:28;9.60;;;4.45;;
81619;SDS011;71028;53.410;6.710;2023-08-12T04:26:54;10.73;;;4.63;;
81619;SDS011;71028;53.410;6.710;2023-08-12T04:29:20;7.32;;;4.32;;
81619;SDS011;71028;53.410;6.710;2023-08-12T04:31:46;6.38;;;4.22;;
81619;SDS011;71028;53.410;6.710;2023-08-12T04:34:12;9.07;;;4.32;;
81619;SDS011;71028;53.410;6.710;2023-08-12T04:36:38;10.13;;;4.60;;
81619;SDS011;71028;53.410;6.710;2023-08-12T04:39:04;10.43;;;4.63;;
81619;SDS011;71028;53.410;6.710;2023-08-12T04:41:30;7.75;;;4.00;;
81619;SDS011;71028;53.410;6.710;2023-08-12T04:43:56;8.10;;;4.53;;
81619;SDS011;71028;53.410;6.710;2023-08-12T04:46:22;8.65;;;4.75;;
81619;SDS011;71028;53.410;6.710;2023-08-12T04:48:48;7.85;;;4.63;;
81619;SDS011;71028;53.410;6.710;2023-08-12T04:51:14;7.97;;;4.53;;
81619;SDS011;71028;53.410;6.710;2023-08-12T04:53:40;8.40;;;5.50;;
81619;SDS011;71028;53.410;6.710;2023-08-12T04:56:06;7.50;;;4.10;;
81619;SDS011;71028;53.410;6.710;2023-08-12T04:58:32;8.48;;;4.63;;
81619;SDS011;71028;53.410;6.710;2023-08-12T05:01:00;7.75;;;4.68;;
81619;SDS011;71028;53.410;6.710;2023-08-12T05:03:26;9.65;;;6.18;;
81619;SDS011;71028;53.410;6.710;2023-08-12T05:05:52;7.57;;;5.03;;
81619;SDS011;71028;53.410;6.710;2023-08-12T05:08:19;8.77;;;4.72;;
81619;SDS011;71028;53.410;6.710;2023-08-12T05:10:48;10.00;;;4.68;;
81619;SDS011;71028;53.410;6.710;2023-08-12T05:13:14;10.52;;;5.28;;
81619;SDS011;71028;53.410;6.710;2023-08-12T05:15:40;6.32;;;4.65;;
81619;SDS011;71028;53.410;6.710;2023-08-12T05:18:06;7.35;;;5.28;;
81619;SDS011;71028;53.410;6.710;2023-08-12T05:20:32;10.20;;;5.43;;
81619;SDS011;71028;53.410;6.710;2023-08-12T05:22:58;7.32;;;4.22;;
81619;SDS011;71028;53.410;6.710;2023-08-12T05:25:24;8.35;;;5.07;;
81619;SDS011;71028;53.410;6.710;2023-08-12T05:27:50;8.40;;;4.95;;
81619;SDS011;71028;53.410;6.710;2023-08-12T05:30:16;11.70;;;5.80;;
81619;SDS011;71028;53.410;6.710;2023-08-12T05:32:42;13.48;;;6.05;;
81619;SDS011;71028;53.410;6.710;2023-08-12T05:35:08;7.85;;;4.68;;
81619;SDS011;71028;53.410;6.710;2023-08-12T05:37:34;12.88;;;5.63;;
81619;SDS011;71028;53.410;6.710;2023-08-12T05:40:00;9.60;;;5.28;;
81619;SDS011;71028;53.410;6.710;2023-08-12T05:42:28;11.35;;;5.80;;
81619;SDS011;71028;53.410;6.710;2023-08-12T05:44:54;10.52;;;5.60;;
81619;SDS011;71028;53.410;6.710;2023-08-12T05:47:20;8.32;;;5.55;;
81619;SDS011;71028;53.410;6.710;2023-08-12T05:49:46;9.48;;;6.07;;
81619;SDS011;71028;53.410;6.710;2023-08-12T05:52:12;10.27;;;6.38;;
81619;SDS011;71028;53.410;6.710;2023-08-12T05:54:38;13.38;;;6.63;;
81619;SDS011;71028;53.410;6.710;2023-08-12T05:57:04;9.57;;;6.30;;
81619;SDS011;71028;53.410;6.710;2023-08-12T05:59:30;9.40;;;5.60;;
81619;SDS011;71028;53.410;6.710;2023-08-12T06:01:56;11.07;;;6.65;;
81619;SDS011;71028;53.410;6.710;2023-08-12T06:04:22;11.13;;;6.70;;
81619;SDS011;71028;53.410;6.710;2023-08-12T06:06:48;8.75;;;5.68;;
81619;SDS011;71028;53.410;6.710;2023-08-12T06:09:14;10.40;;;6.38;;
81619;SDS011;71028;53.410;6.710;2023-08-12T06:11:40;8.63;;;6.05;;
81619;SDS011;71028;53.410;6.710;2023-08-12T06:14:06;10.23;;;5.97;;
81619;SDS011;71028;53.410;6.710;2023-08-12T06:16:32;9.57;;;5.72;;
81619;SDS011;71028;53.410;6.710;2023-08-12T06:18:59;7.97;;;5.32;;
81619;SDS011;71028;53.410;6.710;2023-08-12T06:21:25;10.60;;;6.25;;
81619;SDS011;71028;53.410;6.710;2023-08-12T06:23:51;10.45;;;5.78;;
81619;SDS011;71028;53.410;6.710;2023-08-12T06:26:17;9.60;;;6.20;;
81619;SDS011;71028;53.410;6.710;2023-08-12T06:28:43;10.98;;;5.78;;
81619;SDS011;71028;53.410;6.710;2023-08-12T06:31:09;10.70;;;5.53;;
81619;SDS011;71028;53.410;6.710;2023-08-12T06:33:35;11.27;;;6.20;;
81619;SDS011;71028;53.410;6.710;2023-08-12T06:36:02;9.30;;;5.57;;
81619;SDS011;71028;53.410;6.710;2023-08-12T06:38:28;11.70;;;6.03;;
81619;SDS011;71028;53.410;6.710;2023-08-12T06:40:54;9.57;;;5.65;;
81619;SDS011;71028;53.410;6.710;2023-08-12T06:43:20;9.10;;;5.75;;
81619;SDS011;71028;53.410;6.710;2023-08-12T06:45:46;12.65;;;6.45;;
81619;SDS011;71028;53.410;6.710;2023-08-12T06:48:12;11.02;;;5.72;;
81619;SDS011;71028;53.410;6.710;2023-08-12T06:50:38;12.48;;;6.07;;
81619;SDS011;71028;53.410;6.710;2023-08-12T06:53:04;8.98;;;6.50;;
81619;SDS011;71028;53.410;6.710;2023-08-12T06:55:31;11.80;;;6.88;;
81619;SDS011;71028;53.410;6.710;2023-08-12T06:57:57;12.05;;;6.63;;
81619;SDS011;71028;53.410;6.710;2023-08-12T07:00:23;10.00;;;5.60;;
81619;SDS011;71028;53.410;6.710;2023-08-12T07:02:49;11.48;;;5.97;;
81619;SDS011;71028;53.410;6.710;2023-08-12T07:05:15;10.13;;;6.05;;
81619;SDS011;71028;53.410;6.710;2023-08-12T07:07:41;9.25;;;6.10;;
81619;SDS011;71028;53.410;6.710;2023-08-12T07:10:07;11.50;;;5.90;;
81619;SDS011;71028;53.410;6.710;2023-08-12T07:12:33;9.82;;;6.22;;
81619;SDS011;71028;53.410;6.710;2023-08-12T07:15:00;12.30;;;6.85;;
81619;SDS011;71028;53.410;6.710;2023-08-12T07:17:26;10.60;;;6.70;;
81619;SDS011;71028;53.410;6.710;2023-08-12T07:19:52;10.73;;;6.18;;
81619;SDS011;71028;53.410;6.710;2023-08-12T07:22:18;11.15;;;6.40;;
81619;SDS011;71028;53.410;6.710;2023-08-12T07:24:45;11.07;;;6.28;;
81619;SDS011;71028;53.410;6.710;2023-08-12T07:27:11;13.05;;;7.30;;
81619;SDS011;71028;53.410;6.710;2023-08-12T07:29:37;11.68;;;6.80;;
81619;SDS011;71028;53.410;6.710;2023-08-12T07:32:03;11.38;;;6.82;;
81619;SDS011;71028;53.410;6.710;2023-08-12T07:34:29;12.02;;;7.15;;
81619;SDS011;71028;53.410;6.710;2023-08-12T07:36:55;12.50;;;6.68;;
81619;SDS011;71028;53.410;6.710;2023-08-12T07:39:21;14.25;;;7.15;;
81619;SDS011;71028;53.410;6.710;2023-08-12T07:41:47;12.10;;;7.65;;
81619;SDS011;71028;53.410;6.710;2023-08-12T07:44:13;14.13;;;6.75;;
81619;SDS011;71028;53.410;6.710;2023-08-12T07:46:39;13.43;;;7.70;;
81619;SDS011;71028;53.410;6.710;2023-08-12T07:49:05;13.80;;;6.90;;
81619;SDS011;71028;53.410;6.710;2023-08-12T07:51:31;11.40;;;6.95;;
81619;SDS011;71028;53.410;6.710;2023-08-12T07:53:57;11.75;;;7.10;;
81619;SDS011;71028;53.410;6.710;2023-08-12T07:56:23;13.60;;;7.50;;
81619;SDS011;71028;53.410;6.710;2023-08-12T07:58:49;10.95;;;6.75;;
81619;SDS011;71028;53.410;6.710;2023-08-12T08:01:15;12.40;;;6.85;;
81619;SDS011;71028;53.410;6.710;2023-08-12T08:03:41;12.15;;;7.32;;
81619;SDS011;71028;53.410;6.710;2023-08-12T08:06:07;11.27;;;6.65;;
81619;SDS011;71028;53.410;6.710;2023-08-12T08:08:33;11.10;;;7.07;;
81619;SDS011;71028;53.410;6.710;2023-08-12T08:10:59;14.60;;;7.85;;
81619;SDS011;71028;53.410;6.710;2023-08-12T08:13:25;11.43;;;6.60;;
81619;SDS011;71028;53.410;6.710;2023-08-12T08:15:51;12.35;;;7.00;;
81619;SDS011;71028;53.410;6.710;2023-08-12T08:18:17;13.35;;;7.50;;
81619;SDS011;71028;53.410;6.710;2023-08-12T08:20:43;12.40;;;7.78;;
81619;SDS011;71028;53.410;6.710;2023-08-12T08:23:10;12.55;;;7.03;;
81619;SDS011;71028;53.410;6.710;2023-08-12T08:25:36;12.52;;;6.95;;
81619;SDS011;71028;53.410;6.710;2023-08-12T08:28:02;12.70;;;7.35;;
81619;SDS011;71028;53.410;6.710;2023-08-12T08:30:28;11.43;;;6.70;;
81619;SDS011;71028;53.410;6.710;2023-08-12T08:32:54;12.30;;;7.65;;
81619;SDS011;71028;53.410;6.710;2023-08-12T08:35:20;16.25;;;8.38;;
81619;SDS011;71028;53.410;6.710;2023-08-12T08:37:46;13.40;;;8.23;;
81619;SDS011;71028;53.410;6.710;2023-08-12T08:40:12;15.57;;;8.32;;
81619;SDS011;71028;53.410;6.710;2023-08-12T08:42:38;12.77;;;8.38;;
81619;SDS011;71028;53.410;6.710;2023-08-12T08:45:05;12.35;;;8.40;;
81619;SDS011;71028;53.410;6.710;2023-08-12T08:47:35;12.35;;;8.43;;
81619;SDS011;71028;53.410;6.710;2023-08-12T08:50:01;14.48;;;9.30;;
81619;SDS011;71028;53.410;6.710;2023-08-12T08:52:28;16.02;;;9.52;;
81619;SDS011;71028;53.410;6.710;2023-08-12T08:54:54;18.42;;;9.65;;
81619;SDS011;71028;53.410;6.710;2023-08-12T08:57:20;12.57;;;8.73;;
81619;SDS011;71028;53.410;6.710;2023-08-12T08:59:47;16.27;;;9.20;;
81619;SDS011;71028;53.410;6.710;2023-08-12T09:02:16;13.70;;;9.20;;
81619;SDS011;71028;53.410;6.710;2023-08-12T09:04:45;17.25;;;10.57;;
81619;SDS011;71028;53.410;6.710;2023-08-12T09:07:12;15.73;;;9.43;;
81619;SDS011;71028;53.410;6.710;2023-08-12T09:09:42;17.23;;;9.93;;
81619;SDS011;71028;53.410;6.710;2023-08-12T09:12:11;16.30;;;10.07;;
81619;SDS011;71028;53.410;6.710;2023-08-12T09:14:39;15.30;;;10.57;;
81619;SDS011;71028;53.410;6.710;2023-08-12T09:17:05;17.58;;;10.32;;
81619;SDS011;71028;53.410;6.710;2023-08-12T09:19:31;19.77;;;11.90;;
81619;SDS011;71028;53.410;6.710;2023-08-12T09:21:57;19.10;;;10.98;;
81619;SDS011;71028;53.410;6.710;2023-08-12T09:24:26;20.35;;;12.00;;
81619;SDS011;71028;53.410;6.710;2023-08-12T09:26:54;21.20;;;11.35;;
81619;SDS011;71028;53.410;6.710;2023-08-12T09:29:23;17.42;;;10.65;;
81619;SDS011;71028;53.410;6.710;2023-08-12T09:31:54;14.55;;;10.52;;
81619;SDS011;71028;53.410;6.710;2023-08-12T09:34:21;16.20;;;11.38;;
81619;SDS011;71028;53.410;6.710;2023-08-12T09:36:49;19.05;;;10.65;;
81619;SDS011;71028;53.410;6.710;2023-08-12T09:39:15;17.23;;;10.70;;
81619;SDS011;71028;53.410;6.710;2023-08-12T09:41:42;18.00;;;10.50;;
81619;SDS011;71028;53.410;6.710;2023-08-12T09:44:08;17.52;;;10.73;;
81619;SDS011;71028;53.410;6.710;2023-08-12T09:46:34;20.80;;;12.38;;
81619;SDS011;71028;53.410;6.710;2023-08-12T09:49:00;19.88;;;11.70;;
81619;SDS011;71028;53.410;6.710;2023-08-12T09:51:33;23.10;;;11.48;;
81619;SDS011;71028;53.410;6.710;2023-08-12T09:53:59;16.50;;;10.63;;
81619;SDS011;71028;53.410;6.710;2023-08-12T09:56:25;16.90;;;12.00;;
81619;SDS011;71028;53.410;6.710;2023-08-12T09:58:53;20.58;;;12.73;;
81619;SDS011;71028;53.410;6.710;2023-08-12T10:01:19;20.35;;;12.82;;
81619;SDS011;71028;53.410;6.710;2023-08-12T10:03:47;19.52;;;12.32;;
81619;SDS011;71028;53.410;6.710;2023-08-12T10:06:14;23.85;;;15.50;;
81619;SDS011;71028;53.410;6.710;2023-08-12T10:08:40;23.90;;;14.52;;
81619;SDS011;71028;53.410;6.710;2023-08-12T10:11:07;22.10;;;14.40;;
81619;SDS011;71028;53.410;6.710;2023-08-12T10:13:33;19.77;;;14.15;;
81619;SDS011;71028;53.410;6.710;2023-08-12T10:15:59;22.00;;;13.27;;
81619;SDS011;71028;53.410;6.710;2023-08-12T10:18:26;21.17;;;14.32;;
81619;SDS011;71028;53.410;6.710;2023-08-12T10:20:53;18.23;;;12.65;;
81619;SDS011;71028;53.410;6.710;2023-08-12T10:23:21;21.45;;;14.57;;
81619;SDS011;71028;53.410;6.710;2023-08-12T10:25:47;27.45;;;14.40;;
81619;SDS011;71028;53.410;6.710;2023-08-12T10:28:15;19.23;;;13.40;;
81619;SDS011;71028;53.410;6.710;2023-08-12T10:30:44;19.67;;;13.82;;
81619;SDS011;71028;53.410;6.710;2023-08-12T10:33:10;21.10;;;14.60;;
81619;SDS011;71028;53.410;6.710;2023-08-12T10:35:40;20.92;;;13.85;;
81619;SDS011;71028;53.410;6.710;2023-08-12T10:38:06;21.95;;;14.05;;
81619;SDS011;71028;53.410;6.710;2023-08-12T10:40:33;20.35;;;13.20;;
81619;SDS011;71028;53.410;6.710;2023-08-12T10:42:59;24.55;;;15.23;;
81619;SDS011;71028;53.410;6.710;2023-08-12T10:45:25;24.70;;;14.07;;
81619;SDS011;71028;53.410;6.710;2023-08-12T10:48:16;23.88;;;14.75;;
81619;SDS011;71028;53.410;6.710;2023-08-12T10:50:44;22.15;;;15.02;;
81619;SDS011;71028;53.410;6.710;2023-08-12T10:53:24;22.67;;;13.77;;
81619;SDS011;71028;53.410;6.710;2023-08-12T10:55:54;29.73;;;15.30;;
81619;SDS011;71028;53.410;6.710;2023-08-12T10:58:25;22.08;;;14.55;;
81619;SDS011;71028;53.410;6.710;2023-08-12T11:00:55;25.77;;;14.90;;
81619;SDS011;71028;53.410;6.710;2023-08-12T11:03:22;20.42;;;14.52;;
81619;SDS011;71028;53.410;6.710;2023-08-12T11:05:48;22.35;;;15.35;;
81619;SDS011;71028;53.410;6.710;2023-08-12T11:08:15;21.50;;;13.77;;
81619;SDS011;71028;53.410;6.710;2023-08-12T11:10:41;22.00;;;13.20;;
81619;SDS011;71028;53.410;6.710;2023-08-12T11:13:08;15.90;;;11.38;;
81619;SDS011;71028;53.410;6.710;2023-08-12T11:15:35;19.17;;;10.48;;
81619;SDS011;71028;53.410;6.710;2023-08-12T11:20:34;15.23;;;8.85;;
81619;SDS011;71028;53.410;6.710;2023-08-12T11:23:01;15.25;;;9.80;;
81619;SDS011;71028;53.410;6.710;2023-08-12T11:25:28;11.95;;;8.95;;
81619;SDS011;71028;53.410;6.710;2023-08-12T11:27:54;10.75;;;8.38;;
81619;SDS011;71028;53.410;6.710;2023-08-12T11:30:20;16.10;;;10.20;;
81619;SDS011;71028;53.410;6.710;2023-08-12T11:32:51;12.73;;;7.95;;
81619;SDS011;71028;53.410;6.710;2023-08-12T11:35:17;10.00;;;6.97;;
81619;SDS011;71028;53.410;6.710;2023-08-12T11:37:45;9.95;;;7.10;;
81619;SDS011;71028;53.410;6.710;2023-08-12T11:40:12;8.18;;;6.45;;
81619;SDS011;71028;53.410;6.710;2023-08-12T11:42:41;6.18;;;4.70;;
81619;SDS011;71028;53.410;6.710;2023-08-12T11:45:08;5.43;;;3.72;;
81619;SDS011;71028;53.410;6.710;2023-08-12T11:47:34;5.57;;;3.58;;
81619;SDS011;71028;53.410;6.710;2023-08-12T11:50:08;4.00;;;3.28;;
81619;SDS011;71028;53.410;6.710;2023-08-12T11:52:35;4.18;;;2.97;;
81619;SDS011;71028;53.410;6.710;2023-08-12T11:55:02;2.78;;;2.05;;
81619;SDS011;71028;53.410;6.710;2023-08-12T11:57:28;3.53;;;2.10;;
81619;SDS011;71028;53.410;6.710;2023-08-12T12:00:04;4.70;;;2.30;;
81619;SDS011;71028;53.410;6.710;2023-08-12T12:02:38;3.58;;;2.08;;
81619;SDS011;71028;53.410;6.710;2023-08-12T12:05:07;3.00;;;1.73;;
81619;SDS011;71028;53.410;6.710;2023-08-12T12:07:33;3.35;;;2.05;;
81619;SDS011;71028;53.410;6.710;2023-08-12T12:09:59;3.92;;;2.25;;
81619;SDS011;71028;53.410;6.710;2023-08-12T12:12:25;4.18;;;2.47;;
81619;SDS011;71028;53.410;6.710;2023-08-12T12:14:52;3.70;;;1.98;;
81619;SDS011;71028;53.410;6.710;2023-08-12T12:17:20;5.13;;;2.10;;
81619;SDS011;71028;53.410;6.710;2023-08-12T12:19:46;5.85;;;2.10;;
81619;SDS011;71028;53.410;6.710;2023-08-12T12:22:12;2.83;;;1.70;;
81619;SDS011;71028;53.410;6.710;2023-08-12T12:24:45;2.92;;;1.90;;
81619;SDS011;71028;53.410;6.710;2023-08-12T12:27:12;5.47;;;1.90;;
81619;SDS011;71028;53.410;6.710;2023-08-12T12:29:38;4.82;;;2.00;;
81619;SDS011;71028;53.410;6.710;2023-08-12T12:32:04;5.32;;;1.92;;
81619;SDS011;71028;53.410;6.710;2023-08-12T12:34:30;6.40;;;2.08;;
81619;SDS011;71028;53.410;6.710;2023-08-12T12:36:56;5.82;;;2.10;;
81619;SDS011;71028;53.410;6.710;2023-08-12T12:39:22;7.35;;;2.42;;
81619;SDS011;71028;53.410;6.710;2023-08-12T12:41:48;5.28;;;2.10;;
81619;SDS011;71028;53.410;6.710;2023-08-12T12:44:14;3.38;;;1.90;;
81619;SDS011;71028;53.410;6.710;2023-08-12T12:46:40;4.80;;;2.28;;
81619;SDS011;71028;53.410;6.710;2023-08-12T12:49:06;5.75;;;2.10;;
81619;SDS011;71028;53.410;6.710;2023-08-12T12:51:32;6.13;;;2.20;;
81619;SDS011;71028;53.410;6.710;2023-08-12T12:53:58;5.25;;;2.03;;
81619;SDS011;71028;53.410;6.710;2023-08-12T12:56:24;3.90;;;2.03;;
81619;SDS011;71028;53.410;6.710;2023-08-12T12:58:50;2.40;;;1.17;;
81619;SDS011;71028;53.410;6.710;2023-08-12T13:01:16;5.28;;;1.50;;
81619;SDS011;71028;53.410;6.710;2023-08-12T13:03:42;4.13;;;1.80;;
81619;SDS011;71028;53.410;6.710;2023-08-12T13:06:08;5.00;;;1.60;;
81619;SDS011;71028;53.410;6.710;2023-08-12T13:08:34;3.83;;;1.95;;
81619;SDS011;71028;53.410;6.710;2023-08-12T13:11:00;5.35;;;1.85;;
81619;SDS011;71028;53.410;6.710;2023-08-12T13:13:26;7.25;;;1.90;;
81619;SDS011;71028;53.410;6.710;2023-08-12T13:15:52;4.70;;;2.10;;
81619;SDS011;71028;53.410;6.710;2023-08-12T13:18:18;6.47;;;2.50;;
81619;SDS011;71028;53.410;6.710;2023-08-12T13:20:44;3.53;;;1.90;;
81619;SDS011;71028;53.410;6.710;2023-08-12T13:23:10;6.25;;;2.50;;
81619;SDS011;71028;53.410;6.710;2023-08-12T13:25:37;4.07;;;1.67;;
81619;SDS011;71028;53.410;6.710;2023-08-12T13:28:03;4.65;;;1.80;;
81619;SDS011;71028;53.410;6.710;2023-08-12T13:30:29;7.82;;;2.20;;
81619;SDS011;71028;53.410;6.710;2023-08-12T13:32:55;3.55;;;1.83;;
81619;SDS011;71028;53.410;6.710;2023-08-12T13:35:22;3.63;;;1.85;;
81619;SDS011;71028;53.410;6.710;2023-08-12T13:37:49;5.07;;;1.70;;
81619;SDS011;71028;53.410;6.710;2023-08-12T13:40:16;5.47;;;1.90;;
81619;SDS011;71028;53.410;6.710;2023-08-12T13:42:42;5.25;;;1.98;;
81619;SDS011;71028;53.410;6.710;2023-08-12T13:45:09;6.20;;;1.70;;
81619;SDS011;71028;53.410;6.710;2023-08-12T13:47:35;6.72;;;2.30;;
81619;SDS011;71028;53.410;6.710;2023-08-12T13:50:01;5.68;;;1.83;;
81619;SDS011;71028;53.410;6.710;2023-08-12T13:52:27;6.43;;;2.47;;
81619;SDS011;71028;53.410;6.710;2023-08-12T13:54:53;4.90;;;2.50;;
81619;SDS011;71028;53.410;6.710;2023-08-12T13:57:19;7.47;;;2.80;;
81619;SDS011;71028;53.410;6.710;2023-08-12T13:59:45;6.78;;;2.75;;
81619;SDS011;71028;53.410;6.710;2023-08-12T14:02:12;5.78;;;2.92;;
81619;SDS011;71028;53.410;6.710;2023-08-12T14:04:38;6.75;;;3.60;;
81619;SDS011;71028;53.410;6.710;2023-08-12T14:07:04;8.52;;;3.63;;
81619;SDS011;71028;53.410;6.710;2023-08-12T14:09:30;7.95;;;3.13;;
81619;SDS011;71028;53.410;6.710;2023-08-12T14:11:57;8.63;;;3.35;;
81619;SDS011;71028;53.410;6.710;2023-08-12T14:14:24;8.55;;;3.25;;
81619;SDS011;71028;53.410;6.710;2023-08-12T14:16:52;8.82;;;4.18;;
81619;SDS011;71028;53.410;6.710;2023-08-12T14:19:18;8.38;;;3.58;;
81619;SDS011;71028;53.410;6.710;2023-08-12T14:21:44;7.03;;;3.70;;
81619;SDS011;71028;53.410;6.710;2023-08-12T14:24:10;8.25;;;3.88;;
81619;SDS011;71028;53.410;6.710;2023-08-12T14:26:38;9.57;;;3.53;;
81619;SDS011;71028;53.410;6.710;2023-08-12T14:29:04;6.88;;;2.97;;
81619;SDS011;71028;53.410;6.710;2023-08-12T14:31:30;8.38;;;3.08;;
81619;SDS011;71028;53.410;6.710;2023-08-12T14:33:56;8.75;;;2.72;;
81619;SDS011;71028;53.410;6.710;2023-08-12T14:36:22;4.80;;;2.42;;
81619;SDS011;71028;53.410;6.710;2023-08-12T14:38:49;8.00;;;2.65;;